Time;durP1;ratioP1;P1;durP2;ratioP2;P2;SDS_P1;SDS_P2;PMS_P1;PMS_P2;Temp;Humidity;BMP_temperature;BMP_pressure;BME280_temperature;BME280_humidity;BME280_pressure;Samples;Min_cycle;Max_cycle;Signal;HPM_P1;HPM_P2
2023/05/27 00:03:00;;;;;;;6.40;4.13;;;20.20;24.60;;;;;;10437803;28;20575;-72
2023/05/27 00:08:03;;;;;;;4.27;3.83;;;20.10;24.60;;;;;;10443764;28;20583;-72
2023/05/27 00:13:08;;;;;;;4.97;3.80;;;20.00;24.70;;;;;;10441379;28;20293;-72
2023/05/27 00:18:11;;;;;;;4.53;3.60;;;20.00;24.80;;;;;;10454836;28;20256;-72
2023/05/27 00:23:14;;;;;;;4.67;4.00;;;19.90;24.80;;;;;;10447774;28;20328;-72
2023/05/27 00:28:19;;;;;;;5.03;3.93;;;19.80;24.80;;;;;;10453375;28;20225;-72
2023/05/27 00:33:22;;;;;;;4.80;3.90;;;19.70;25.10;;;;;;10449404;28;20298;-72
2023/05/27 00:38:25;;;;;;;5.87;4.10;;;19.70;25.00;;;;;;10453083;28;20239;-73
2023/05/27 00:43:31;;;;;;;5.20;4.00;;;19.60;24.90;;;;;;10448684;28;20233;-73
2023/05/27 00:48:35;;;;;;;5.23;3.50;;;19.50;25.00;;;;;;10449109;28;20244;-72
2023/05/27 00:53:41;;;;;;;5.53;3.57;;;19.50;25.00;;;;;;10446962;28;20225;-72
2023/05/27 00:58:46;;;;;;;3.97;3.40;;;19.40;24.90;;;;;;10445341;28;20668;-73
2023/05/27 01:03:50;;;;;;;6.40;3.77;;;19.40;24.90;;;;;;10446862;28;20227;-73
2023/05/27 01:09:00;;;;;;;6.40;3.53;;;19.30;24.90;;;;;;10447841;28;20221;-72
2023/05/27 01:14:10;;;;;;;4.53;3.50;;;19.30;24.80;;;;;;10446167;28;20247;-72
2023/05/27 01:19:16;;;;;;;4.13;3.33;;;19.20;24.80;;;;;;10448355;28;20236;-72
2023/05/27 01:24:21;;;;;;;6.27;3.50;;;19.20;24.80;;;;;;10451177;28;20232;-73
2023/05/27 01:29:24;;;;;;;5.53;3.40;;;19.10;24.70;;;;;;10439933;28;20246;-73
2023/05/27 01:34:34;;;;;;;4.67;3.60;;;19.10;24.70;;;;;;10447244;28;20232;-73
2023/05/27 01:39:40;;;;;;;4.27;3.33;;;19.00;24.90;;;;;;10446073;28;20307;-72
2023/05/27 01:44:43;;;;;;;6.17;3.17;;;18.80;24.70;;;;;;10446888;28;20233;-73
2023/05/27 01:49:47;;;;;;;6.80;3.50;;;18.70;24.60;;;;;;10455661;28;20240;-72
2023/05/27 02:01:09;;;;;;;2.93;2.50;;;18.50;25.20;;;;;;10311819;28;20697;-73
2023/05/27 02:06:12;;;;;;;3.40;2.40;;;18.40;25.10;;;;;;10445701;28;20231;-72
2023/05/27 02:11:15;;;;;;;3.80;2.90;;;18.30;25.10;;;;;;10438969;28;20228;-72
2023/05/27 02:16:20;;;;;;;5.83;3.10;;;18.30;25.30;;;;;;10446553;28;20307;-73
2023/05/27 02:21:23;;;;;;;5.40;3.20;;;18.20;25.60;;;;;;10439278;28;20324;-72
2023/05/27 02:26:27;;;;;;;5.47;3.53;;;18.20;25.60;;;;;;10444489;28;20288;-72
2023/05/27 02:31:31;;;;;;;7.37;3.17;;;18.20;25.70;;;;;;10440225;28;20232;-72
2023/05/27 02:36:35;;;;;;;6.83;3.00;;;18.10;25.80;;;;;;10442200;28;20772;-72
2023/05/27 02:41:38;;;;;;;7.83;3.30;;;18.10;25.70;;;;;;10437746;28;20252;-73
2023/05/27 02:46:42;;;;;;;6.00;3.47;;;18.00;25.70;;;;;;10436397;28;20221;-73
2023/05/27 02:51:46;;;;;;;5.20;3.40;;;17.90;25.80;;;;;;10446373;28;20279;-73
2023/05/27 02:56:49;;;;;;;6.77;3.20;;;17.90;25.70;;;;;;10435662;28;21005;-73
2023/05/27 03:01:53;;;;;;;4.93;2.73;;;17.80;25.70;;;;;;10445024;28;20244;-73
2023/05/27 03:06:56;;;;;;;6.97;3.20;;;17.80;25.90;;;;;;10436413;28;20275;-73
2023/05/27 03:12:00;;;;;;;4.87;2.90;;;17.70;25.80;;;;;;10440182;28;20229;-73
2023/05/27 03:17:05;;;;;;;4.40;2.90;;;17.60;25.80;;;;;;10440170;28;20236;-73
2023/05/27 03:22:08;;;;;;;3.90;2.80;;;17.60;26.20;;;;;;10442578;28;20680;-72
2023/05/27 03:27:12;;;;;;;4.60;2.70;;;17.60;26.00;;;;;;10437193;28;20231;-73
2023/05/27 03:32:16;;;;;;;4.40;2.80;;;17.50;25.90;;;;;;10446558;28;20302;-73
2023/05/27 03:37:19;;;;;;;4.27;2.90;;;17.50;26.10;;;;;;10438943;28;20229;-73
2023/05/27 03:42:23;;;;;;;5.10;2.77;;;17.50;26.10;;;;;;10438133;28;20224;-74
2023/05/27 03:47:27;;;;;;;6.30;2.90;;;17.50;26.00;;;;;;10438616;28;20334;-73
2023/05/27 03:52:30;;;;;;;6.73;3.30;;;17.40;26.00;;;;;;10433700;28;20237;-73
2023/05/27 03:57:34;;;;;;;5.80;2.77;;;17.40;26.00;;;;;;10438379;28;20283;-73
2023/05/27 04:02:39;;;;;;;4.17;2.60;;;17.40;26.10;;;;;;10441426;28;20327;-73
2023/05/27 04:07:42;;;;;;;3.60;2.60;;;17.30;26.10;;;;;;10441496;28;20229;-73
2023/05/27 04:12:45;;;;;;;6.30;2.93;;;17.30;26.10;;;;;;10436260;28;20232;-73
2023/05/27 04:17:50;;;;;;;4.40;2.90;;;17.30;26.10;;;;;;10441091;28;20224;-75
2023/05/27 04:22:53;;;;;;;5.10;2.97;;;17.30;26.20;;;;;;10439343;28;20233;-75
2023/05/27 04:27:56;;;;;;;5.00;3.07;;;17.30;26.10;;;;;;10441551;28;20275;-73
2023/05/27 04:33:01;;;;;;;5.47;3.10;;;17.20;26.10;;;;;;10436570;28;20304;-75
2023/05/27 04:38:04;;;;;;;6.47;3.27;;;17.20;26.20;;;;;;10441371;28;20229;-74
2023/05/27 04:43:07;;;;;;;5.63;2.80;;;17.20;26.20;;;;;;10441658;28;20235;-74
2023/05/27 04:48:12;;;;;;;5.83;3.40;;;17.10;26.20;;;;;;10437723;28;20304;-74
2023/05/27 04:53:16;;;;;;;6.67;3.53;;;17.10;26.50;;;;;;10439701;28;20236;-74
2023/05/27 04:58:19;;;;;;;4.53;2.83;;;17.00;26.30;;;;;;10439290;28;20232;-73
2023/05/27 05:03:36;;;;;;;7.07;3.10;;;17.00;26.50;;;;;;10447568;28;20237;-73
2023/05/27 05:08:40;;;;;;;4.63;2.97;;;17.00;26.70;;;;;;10451373;28;20225;-74
2023/05/27 05:13:43;;;;;;;4.63;3.30;;;17.10;26.80;;;;;;10444813;28;20229;-74
2023/05/27 05:18:48;;;;;;;4.10;2.87;;;17.00;26.80;;;;;;10446783;28;20700;-73
2023/05/27 05:23:51;;;;;;;5.10;3.17;;;17.10;27.20;;;;;;10448283;28;20228;-73
2023/05/27 05:28:55;;;;;;;5.67;3.13;;;17.20;27.10;;;;;;10442709;28;20335;-73
2023/05/27 05:33:59;;;;;;;5.33;3.33;;;17.20;27.00;;;;;;10446400;28;20310;-72
2023/05/27 05:39:02;;;;;;;5.97;3.07;;;17.30;27.40;;;;;;10447577;28;20303;-73
2023/05/27 05:44:06;;;;;;;4.93;3.43;;;17.20;27.00;;;;;;10451939;28;20239;-73
2023/05/27 05:49:10;;;;;;;4.47;3.30;;;17.30;27.20;;;;;;10440652;28;20232;-73
2023/05/27 05:54:14;;;;;;;5.97;3.23;;;17.40;27.40;;;;;;10442872;28;20850;-73
2023/05/27 05:59:17;;;;;;;4.63;3.30;;;17.40;27.30;;;;;;10448243;28;20225;-73
2023/05/27 06:04:21;;;;;;;5.47;3.17;;;17.50;27.40;;;;;;10440235;28;20339;-73
2023/05/27 06:09:25;;;;;;;8.03;3.30;;;17.60;27.50;;;;;;10445833;28;20283;-73
2023/05/27 06:14:28;;;;;;;6.20;3.43;;;17.60;27.30;;;;;;10441030;28;21153;-74
2023/05/27 06:19:33;;;;;;;5.47;2.90;;;17.70;27.50;;;;;;10438289;28;20239;-73
2023/05/27 06:24:36;;;;;;;6.23;3.33;;;17.80;27.70;;;;;;10440599;28;20239;-73
2023/05/27 06:29:39;;;;;;;6.70;3.30;;;17.90;27.70;;;;;;10442250;28;20224;-74
2023/05/27 06:34:44;;;;;;;4.77;2.93;;;18.00;27.60;;;;;;10437220;28;20243;-73
2023/05/27 06:39:47;;;;;;;4.60;3.00;;;18.20;27.90;;;;;;10443069;28;20331;-73
2023/05/27 06:44:50;;;;;;;6.43;3.43;;;18.30;27.70;;;;;;10439922;28;20336;-72
2023/05/27 06:49:55;;;;;;;5.57;2.93;;;18.40;27.80;;;;;;10448484;28;21231;-73
2023/05/27 06:54:58;;;;;;;5.87;3.23;;;18.60;28.10;;;;;;10440671;28;20795;-73
2023/05/27 07:00:03;;;;;;;5.67;3.00;;;18.70;28.60;;;;;;10439606;28;20639;-73
2023/05/27 07:05:08;;;;;;;4.13;2.83;;;18.90;27.90;;;;;;10443105;28;20260;-73
2023/05/27 07:10:11;;;;;;;5.13;2.83;;;19.10;27.60;;;;;;10437027;28;20231;-73
2023/05/27 07:15:15;;;;;;;5.97;2.87;;;19.30;27.60;;;;;;10440194;28;20312;-73
2023/05/27 07:20:19;;;;;;;7.73;3.10;;;19.50;28.00;;;;;;10435688;28;20234;-73
2023/05/27 07:25:22;;;;;;;4.83;2.93;;;19.70;27.50;;;;;;10437718;28;20226;-73
2023/05/27 07:30:25;;;;;;;5.17;3.03;;;19.90;27.50;;;;;;10435553;28;20228;-72
2023/05/27 07:35:30;;;;;;;8.10;3.30;;;20.10;27.20;;;;;;10439156;28;20229;-73
2023/05/27 07:40:33;;;;;;;7.33;3.30;;;20.30;27.30;;;;;;10433839;28;20227;-73
2023/05/27 07:45:36;;;;;;;5.37;2.80;;;20.50;27.40;;;;;;10433111;28;20236;-73
2023/05/27 07:50:41;;;;;;;4.77;2.87;;;20.70;27.10;;;;;;10434692;28;20233;-72
2023/05/27 07:55:44;;;;;;;5.33;3.20;;;20.90;26.90;;;;;;10438108;28;20224;-73
2023/05/27 08:00:47;;;;;;;3.17;2.70;;;21.10;27.00;;;;;;10434772;28;20235;-73
2023/05/27 08:05:52;;;;;;;7.83;3.20;;;21.30;26.80;;;;;;10434575;28;20244;-72
2023/05/27 08:10:56;;;;;;;6.30;3.47;;;21.50;26.30;;;;;;10440956;28;20241;-72
2023/05/27 08:15:59;;;;;;;5.23;2.93;;;21.70;26.50;;;;;;10437625;28;20237;-72
2023/05/27 08:21:04;;;;;;;5.70;3.27;;;21.90;26.60;;;;;;10438039;28;20768;-73
2023/05/27 08:26:08;;;;;;;4.77;2.80;;;22.10;26.20;;;;;;10440352;28;20316;-73
2023/05/27 08:31:11;;;;;;;7.47;3.27;;;22.30;26.30;;;;;;10440268;28;20235;-72
2023/05/27 08:36:18;;;;;;;7.33;3.63;;;22.50;26.00;;;;;;10445144;28;20225;-73
2023/05/27 08:41:22;;;;;;;5.40;3.40;;;22.70;25.60;;;;;;10448191;28;20283;-72
2023/05/27 08:46:27;;;;;;;7.40;3.63;;;22.90;26.00;;;;;;10448180;28;20231;-72
2023/05/27 08:51:32;;;;;;;6.23;3.50;;;23.10;25.60;;;;;;10447946;28;20232;-73
2023/05/27 08:56:36;;;;;;;4.13;3.07;;;23.30;25.70;;;;;;10447040;28;20228;-73
2023/05/27 09:01:41;;;;;;;4.40;3.10;;;23.50;25.60;;;;;;10447268;28;20843;-73
2023/05/27 09:06:45;;;;;;;7.93;3.20;;;23.70;25.40;;;;;;10447413;28;20232;-73
2023/05/27 09:11:48;;;;;;;6.90;3.60;;;23.90;25.20;;;;;;10446981;28;20235;-71
2023/05/27 09:16:52;;;;;;;5.53;3.03;;;24.10;25.10;;;;;;10445113;28;20811;-72
2023/05/27 09:21:56;;;;;;;6.97;3.23;;;24.30;25.10;;;;;;10438885;28;20233;-72
2023/05/27 09:26:59;;;;;;;6.60;3.73;;;24.40;24.40;;;;;;10445094;28;21102;-72
2023/05/27 09:32:02;;;;;;;6.03;3.67;;;24.60;24.60;;;;;;10443817;28;20226;-72
2023/05/27 09:37:14;;;;;;;5.80;3.60;;;24.70;24.50;;;;;;10444246;28;20213;-72
2023/05/27 09:42:18;;;;;;;6.37;3.27;;;24.80;23.50;;;;;;10441524;28;20379;-72
2023/05/27 09:47:23;;;;;;;3.80;3.40;;;24.90;23.90;;;;;;10437972;28;20231;-72
2023/05/27 09:52:28;;;;;;;5.03;3.30;;;25.00;23.60;;;;;;10441058;28;20661;-72
2023/05/27 09:57:32;;;;;;;4.03;3.43;;;25.10;22.90;;;;;;10446658;28;20826;-72
2023/05/27 10:02:37;;;;;;;5.10;3.33;;;25.20;23.30;;;;;;10442983;28;20228;-72
2023/05/27 10:07:43;;;;;;;4.73;3.50;;;25.30;23.20;;;;;;10447029;28;20286;-72
2023/05/27 10:13:08;;;;;;;5.67;3.30;;;25.40;22.60;;;;;;10441305;28;20240;-72
2023/05/27 10:18:11;;;;;;;4.47;3.30;;;25.50;23.20;;;;;;10440203;28;20253;-71
2023/05/27 10:23:16;;;;;;;4.87;3.43;;;25.60;23.00;;;;;;10438970;28;20355;-71
2023/05/27 10:28:27;;;;;;;5.43;3.40;;;25.60;22.10;;;;;;10442417;28;20325;-72
2023/05/27 10:33:31;;;;;;;6.30;3.67;;;25.70;21.90;;;;;;10446517;28;20333;-72
2023/05/27 10:38:36;;;;;;;5.60;3.40;;;25.80;22.40;;;;;;10434546;28;20221;-72
2023/05/27 10:43:39;;;;;;;3.20;2.90;;;25.80;22.50;;;;;;10438708;28;20230;-72
2023/05/27 10:48:42;;;;;;;4.33;3.50;;;25.90;22.50;;;;;;10438581;28;20228;-72
2023/05/27 10:53:47;;;;;;;4.40;3.47;;;26.00;22.50;;;;;;10438414;28;20320;-72
2023/05/27 10:59:13;;;;;;;5.70;3.87;;;26.10;21.90;;;;;;10438244;28;20315;-72
2023/05/27 11:04:16;;;;;;;5.37;3.90;;;26.20;21.40;;;;;;10439156;28;20348;-72
2023/05/27 11:09:21;;;;;;;5.17;3.57;;;26.30;21.60;;;;;;10440061;28;20244;-72
2023/05/27 11:14:24;;;;;;;3.93;3.50;;;26.30;21.50;;;;;;10439000;28;20219;-72
2023/05/27 11:19:27;;;;;;;5.33;3.73;;;26.40;22.20;;;;;;10430808;28;20232;-72
2023/05/27 11:24:32;;;;;;;5.03;3.53;;;26.50;21.60;;;;;;10433561;28;20775;-72
2023/05/27 11:29:35;;;;;;;4.93;3.13;;;26.50;21.20;;;;;;10440653;28;20225;-71
2023/05/27 11:34:38;;;;;;;5.07;3.57;;;26.50;21.40;;;;;;10445802;28;20316;-71
2023/05/27 11:39:52;;;;;;;5.80;3.70;;;26.50;21.40;;;;;;10441216;28;20779;-72
2023/05/27 11:44:56;;;;;;;4.57;3.33;;;26.50;20.00;;;;;;10432990;28;20228;-72
2023/05/27 11:49:59;;;;;;;3.57;2.90;;;26.50;20.50;;;;;;10441579;28;20238;-72
2023/05/27 11:55:14;;;;;;;4.60;2.93;;;26.40;20.60;;;;;;10431521;28;20213;-72
2023/05/27 12:00:19;;;;;;;3.63;3.27;;;26.40;20.30;;;;;;10428565;28;20229;-72
2023/05/27 12:05:22;;;;;;;3.97;3.00;;;26.50;20.10;;;;;;10440283;28;20235;-72
2023/05/27 12:10:38;;;;;;;5.53;3.17;;;26.50;20.00;;;;;;10444357;28;20561;-72
2023/05/27 12:15:41;;;;;;;4.87;3.20;;;26.50;19.30;;;;;;10410826;28;20324;-71
2023/05/27 12:20:45;;;;;;;4.73;2.93;;;26.50;19.40;;;;;;10399540;28;20232;-73
2023/05/27 12:25:50;;;;;;;5.47;3.20;;;26.50;19.40;;;;;;10399412;28;20230;-73
2023/05/27 12:30:53;;;;;;;4.53;2.80;;;26.40;19.30;;;;;;10398794;28;20237;-73
2023/05/27 12:35:57;;;;;;;4.33;3.23;;;26.40;19.20;;;;;;10396987;28;20702;-74
2023/05/27 12:41:02;;;;;;;5.03;3.13;;;26.40;19.90;;;;;;10390901;28;20234;-74
2023/05/27 12:46:06;;;;;;;3.90;3.20;;;26.40;18.90;;;;;;10395496;28;20316;-74
2023/05/27 12:51:10;;;;;;;5.70;3.50;;;26.50;19.30;;;;;;10397188;28;20274;-73
2023/05/27 12:56:15;;;;;;;4.13;3.13;;;26.50;19.30;;;;;;10398161;28;20250;-74
2023/05/27 13:01:18;;;;;;;3.87;3.10;;;26.60;19.40;;;;;;10398936;28;20233;-74
2023/05/27 13:06:21;;;;;;;3.27;2.97;;;26.70;19.40;;;;;;10398739;28;20246;-74
2023/05/27 13:11:26;;;;;;;4.77;2.97;;;26.70;19.40;;;;;;10398275;28;20244;-75
2023/05/27 13:16:30;;;;;;;4.73;3.27;;;26.80;19.40;;;;;;10433341;28;20229;-72
2023/05/27 13:21:33;;;;;;;4.33;2.70;;;26.80;19.40;;;;;;10430715;28;20696;-72
2023/05/27 13:26:37;;;;;;;3.33;2.70;;;26.90;19.10;;;;;;10436963;28;20340;-72
2023/05/27 13:31:41;;;;;;;5.97;2.90;;;26.90;18.60;;;;;;10432184;28;20723;-72
2023/05/27 13:36:44;;;;;;;3.37;2.70;;;26.90;18.90;;;;;;10442391;28;20299;-72
2023/05/27 13:41:49;;;;;;;5.10;3.10;;;27.00;19.10;;;;;;10442359;28;20232;-73
2023/05/27 13:46:52;;;;;;;3.70;2.70;;;27.00;18.50;;;;;;10443345;28;20836;-72
2023/05/27 13:51:56;;;;;;;4.03;3.07;;;27.00;18.70;;;;;;10443430;28;20228;-72
2023/05/27 13:57:00;;;;;;;4.73;2.77;;;27.00;18.50;;;;;;10440590;28;20232;-72
2023/05/27 14:02:05;;;;;;;4.57;2.97;;;27.10;17.60;;;;;;10439595;28;20216;-72
2023/05/27 14:07:09;;;;;;;3.97;2.90;;;27.10;18.10;;;;;;10445879;28;20233;-72
2023/05/27 14:12:14;;;;;;;4.50;2.73;;;27.00;18.10;;;;;;10436002;28;20231;-72
2023/05/27 14:17:17;;;;;;;3.03;2.50;;;27.00;17.60;;;;;;10442754;28;20236;-72
2023/05/27 14:22:22;;;;;;;4.53;3.07;;;27.00;18.40;;;;;;10440910;28;20235;-74
2023/05/27 14:27:26;;;;;;;5.43;3.40;;;26.90;18.10;;;;;;10449536;28;20324;-74
2023/05/27 14:32:29;;;;;;;4.80;3.20;;;26.90;17.80;;;;;;10450315;28;20228;-74
2023/05/27 14:37:33;;;;;;;3.93;2.90;;;26.90;17.90;;;;;;10449257;28;20232;-74
2023/05/27 14:42:37;;;;;;;4.27;3.00;;;26.80;18.10;;;;;;10447939;28;20225;-74
2023/05/27 14:47:41;;;;;;;3.60;2.77;;;26.80;17.70;;;;;;10431652;28;20312;-73
2023/05/27 14:52:45;;;;;;;3.60;2.87;;;26.90;18.10;;;;;;10427064;28;20258;-76
2023/05/27 14:57:50;;;;;;;3.57;3.20;;;27.00;18.00;;;;;;10439100;28;21017;-75
2023/05/27 15:02:53;;;;;;;3.83;3.20;;;27.00;18.00;;;;;;10437414;28;20473;-75
2023/05/27 15:07:57;;;;;;;4.30;3.20;;;27.10;18.40;;;;;;10440870;28;20229;-75
2023/05/27 15:13:02;;;;;;;4.50;2.80;;;27.10;18.20;;;;;;10439555;28;20233;-75
2023/05/27 15:18:07;;;;;;;3.63;2.80;;;27.20;17.80;;;;;;10446116;28;20311;-75
2023/05/27 15:23:11;;;;;;;4.60;2.87;;;27.20;17.90;;;;;;10435257;28;20244;-76
2023/05/27 15:28:16;;;;;;;4.13;2.93;;;27.30;17.70;;;;;;10433512;28;20311;-74
2023/05/27 15:33:19;;;;;;;4.93;3.23;;;27.20;17.50;;;;;;10432797;28;20661;-74
2023/05/27 15:38:23;;;;;;;3.53;2.70;;;27.30;17.40;;;;;;10433594;28;20308;-74
2023/05/27 15:43:27;;;;;;;4.80;3.30;;;27.20;18.10;;;;;;10435915;28;20267;-74
2023/05/27 15:48:31;;;;;;;3.87;3.03;;;27.20;17.50;;;;;;10438613;28;20271;-75
2023/05/27 15:53:34;;;;;;;5.10;3.30;;;27.20;17.80;;;;;;10444720;28;20313;-76
2023/05/27 15:58:39;;;;;;;3.30;2.97;;;27.20;17.60;;;;;;10432061;28;20256;-76
2023/05/27 16:03:42;;;;;;;3.13;2.70;;;27.20;17.60;;;;;;10431859;28;20221;-76
2023/05/27 16:08:45;;;;;;;3.97;3.00;;;27.10;17.70;;;;;;10430907;28;20758;-75
2023/05/27 16:13:50;;;;;;;4.97;3.20;;;27.20;17.70;;;;;;10438923;28;21282;-76
2023/05/27 16:18:53;;;;;;;5.63;2.90;;;27.20;17.60;;;;;;10437204;28;20236;-75
2023/05/27 16:23:56;;;;;;;4.20;3.10;;;27.10;17.60;;;;;;10422139;28;20316;-75
2023/05/27 16:29:11;;;;;;;4.10;3.20;;;27.10;17.60;;;;;;10432266;28;20265;-76
2023/05/27 16:34:14;;;;;;;4.37;3.20;;;27.10;17.40;;;;;;10424968;28;20950;-76
2023/05/27 16:39:17;;;;;;;3.63;2.93;;;27.10;17.50;;;;;;10422833;28;20319;-75
2023/05/27 16:44:22;;;;;;;5.40;3.00;;;27.10;17.50;;;;;;10439417;28;20230;-75
2023/05/27 16:49:26;;;;;;;3.90;2.50;;;27.10;17.50;;;;;;10421015;28;20232;-75
2023/05/27 16:54:29;;;;;;;3.57;2.80;;;27.10;17.70;;;;;;10428805;28;20231;-75
2023/05/27 16:59:33;;;;;;;4.33;2.97;;;27.10;17.50;;;;;;10436394;28;20620;-75
2023/05/27 17:04:37;;;;;;;5.00;3.40;;;27.10;17.40;;;;;;10438746;28;20225;-76
2023/05/27 17:09:40;;;;;;;4.37;3.13;;;27.10;17.50;;;;;;10436056;28;20860;-76
2023/05/27 17:14:45;;;;;;;5.30;2.97;;;27.10;17.50;;;;;;10434249;28;20308;-76
2023/05/27 17:19:48;;;;;;;6.97;3.17;;;27.10;17.40;;;;;;10435447;28;20229;-76
2023/05/27 17:24:51;;;;;;;5.93;3.27;;;27.10;17.50;;;;;;10434984;28;20594;-76
2023/05/27 17:29:56;;;;;;;4.43;2.93;;;27.10;17.50;;;;;;10434607;28;20324;-76
2023/05/27 17:34:59;;;;;;;5.60;3.30;;;27.00;17.30;;;;;;10432200;28;20229;-76
2023/05/27 17:40:07;;;;;;;5.73;3.30;;;27.00;17.60;;;;;;10435934;28;20255;-76
2023/05/27 17:45:12;;;;;;;3.27;2.70;;;27.00;17.70;;;;;;10432280;28;20229;-76
2023/05/27 17:50:15;;;;;;;6.07;3.30;;;26.90;17.60;;;;;;10434365;28;20348;-76
2023/05/27 17:55:18;;;;;;;4.43;2.90;;;26.90;17.90;;;;;;10435304;28;20276;-76
2023/05/27 18:00:23;;;;;;;3.50;2.90;;;26.90;18.00;;;;;;10439752;28;20242;-76
2023/05/27 18:05:26;;;;;;;4.60;2.70;;;26.90;17.80;;;;;;10437303;28;20232;-77
2023/05/27 18:10:29;;;;;;;4.13;2.80;;;26.90;17.90;;;;;;10441831;28;20701;-76
2023/05/27 18:15:34;;;;;;;7.60;2.97;;;26.80;17.80;;;;;;10438401;28;20221;-76
2023/05/27 18:20:38;;;;;;;4.03;2.80;;;26.70;17.80;;;;;;10431986;28;20320;-76
2023/05/27 18:25:41;;;;;;;3.30;2.90;;;26.60;18.30;;;;;;10442527;28;20225;-76
2023/05/27 18:30:45;;;;;;;5.87;3.30;;;26.50;18.20;;;;;;10436534;28;20225;-76
2023/05/27 18:35:49;;;;;;;4.77;3.20;;;26.40;18.60;;;;;;10434682;28;20854;-76
2023/05/27 18:40:52;;;;;;;4.33;3.20;;;26.30;18.70;;;;;;10428488;28;20940;-76
2023/05/27 18:45:58;;;;;;;5.83;3.47;;;26.10;18.70;;;;;;10435581;28;20235;-76
2023/05/27 18:51:03;;;;;;;3.77;3.07;;;25.90;19.00;;;;;;10441517;28;20610;-76
2023/05/27 18:56:07;;;;;;;4.23;3.30;;;25.70;18.90;;;;;;10438451;28;20317;-76
2023/05/27 19:01:12;;;;;;;4.90;3.17;;;25.60;18.80;;;;;;10439751;28;20311;-77
2023/05/27 19:06:16;;;;;;;3.33;2.87;;;25.50;18.80;;;;;;10442303;28;20244;-77
2023/05/27 19:11:19;;;;;;;4.83;3.10;;;25.30;18.70;;;;;;10437748;28;20259;-78
2023/05/27 19:16:24;;;;;;;5.30;3.20;;;25.20;19.10;;;;;;10432705;28;20240;-77
2023/05/27 19:21:28;;;;;;;5.40;3.27;;;25.10;19.40;;;;;;10438829;28;20744;-77
2023/05/27 19:26:31;;;;;;;5.43;3.33;;;25.00;19.50;;;;;;10443146;28;20233;-78
2023/05/27 19:31:35;;;;;;;4.57;2.97;;;24.90;19.60;;;;;;10440741;28;20319;-78
2023/05/27 19:36:39;;;;;;;4.23;3.13;;;24.80;19.90;;;;;;10438006;28;21017;-78
2023/05/27 19:41:42;;;;;;;4.73;3.13;;;24.70;20.00;;;;;;10443798;28;20230;-78
2023/05/27 19:46:46;;;;;;;4.57;2.97;;;24.60;20.00;;;;;;10440114;28;20232;-77
2023/05/27 19:51:50;;;;;;;5.60;3.50;;;24.50;20.30;;;;;;10436096;28;20237;-78
2023/05/27 19:56:53;;;;;;;5.43;3.10;;;24.30;20.30;;;;;;10438234;28;20307;-78
2023/05/27 20:01:58;;;;;;;5.70;3.27;;;24.20;20.30;;;;;;10437439;28;20232;-77
2023/05/27 20:07:01;;;;;;;5.20;4.50;;;24.00;20.70;;;;;;10445411;28;20315;-77
2023/05/27 20:12:05;;;;;;;6.53;4.53;;;23.90;20.60;;;;;;10431520;28;20221;-77
2023/05/27 20:17:10;;;;;;;4.87;4.33;;;23.70;20.60;;;;;;10438667;28;20303;-78
2023/05/27 20:22:13;;;;;;;5.17;3.80;;;23.60;20.90;;;;;;10435737;28;20225;-77
2023/05/27 20:27:16;;;;;;;3.90;3.13;;;23.50;20.90;;;;;;10437143;28;20290;-77
2023/05/27 20:32:21;;;;;;;3.77;3.27;;;23.40;20.90;;;;;;10433336;28;20347;-77
2023/05/27 20:37:24;;;;;;;4.50;3.03;;;23.20;21.10;;;;;;10448121;28;20709;-78
2023/05/27 20:42:27;;;;;;;5.17;3.60;;;23.10;21.10;;;;;;10446524;28;20262;-77
2023/05/27 20:47:32;;;;;;;3.47;2.90;;;23.00;21.30;;;;;;10443337;28;20309;-77
2023/05/27 20:52:36;;;;;;;4.27;3.50;;;22.90;21.50;;;;;;10448566;28;20221;-77
2023/05/27 20:57:39;;;;;;;4.23;3.20;;;22.80;21.40;;;;;;10451068;28;20225;-77
2023/05/27 21:02:44;;;;;;;3.67;2.93;;;22.60;21.30;;;;;;10446882;28;20225;-78
2023/05/27 21:07:49;;;;;;;4.43;3.33;;;22.50;21.60;;;;;;10449257;28;20233;-77
2023/05/27 21:12:53;;;;;;;4.03;3.20;;;22.40;21.60;;;;;;10439366;28;20240;-77
2023/05/27 21:17:58;;;;;;;4.40;3.40;;;22.30;21.70;;;;;;10446892;28;20772;-77
2023/05/27 21:23:01;;;;;;;3.90;3.33;;;22.20;21.90;;;;;;10454797;28;20228;-77
2023/05/27 21:28:05;;;;;;;4.50;3.60;;;22.10;21.80;;;;;;10448682;28;20213;-77
2023/05/27 21:33:10;;;;;;;5.03;3.87;;;21.80;21.80;;;;;;10449716;28;20344;-77
2023/05/27 21:38:13;;;;;;;7.50;3.50;;;21.50;22.00;;;;;;10434151;28;20257;-77
2023/05/27 21:43:17;;;;;;;4.80;3.30;;;21.30;22.00;;;;;;10450417;28;20229;-77
2023/05/27 21:48:22;;;;;;;4.73;3.20;;;21.20;22.20;;;;;;10440627;28;20598;-77
2023/05/27 21:53:25;;;;;;;5.00;3.10;;;21.00;22.30;;;;;;10440479;28;20226;-77
2023/05/27 21:58:28;;;;;;;4.07;3.40;;;20.90;22.30;;;;;;10452209;28;20278;-77
2023/05/27 22:03:33;;;;;;;5.23;3.13;;;20.80;22.40;;;;;;10448485;28;20217;-77
2023/05/27 22:08:36;;;;;;;5.40;4.03;;;20.70;22.50;;;;;;10448352;28;20222;-78
2023/05/27 22:13:39;;;;;;;5.87;5.23;;;20.70;22.50;;;;;;10441507;28;20225;-76
2023/05/27 22:18:44;;;;;;;5.00;3.87;;;20.50;22.40;;;;;;10444034;28;20228;-77
2023/05/27 22:23:47;;;;;;;6.37;3.50;;;20.40;22.90;;;;;;10440705;28;20745;-76
2023/05/27 22:28:50;;;;;;;6.97;3.50;;;20.30;22.70;;;;;;10445436;28;20330;-77
2023/05/27 22:33:55;;;;;;;4.90;3.37;;;20.20;22.70;;;;;;10445502;28;20256;-77
2023/05/27 22:38:58;;;;;;;7.30;3.70;;;20.00;23.20;;;;;;10440754;28;20235;-76
2023/05/27 22:44:01;;;;;;;4.57;3.20;;;19.80;22.80;;;;;;10453222;28;20308;-77
2023/05/27 22:49:06;;;;;;;4.67;3.47;;;19.60;22.90;;;;;;10444115;28;20221;-76
2023/05/27 22:54:09;;;;;;;4.47;3.60;;;19.60;23.30;;;;;;10440633;28;20231;-77
2023/05/27 22:59:12;;;;;;;4.27;3.07;;;19.50;23.00;;;;;;10438065;28;20229;-78
2023/05/27 23:04:17;;;;;;;3.97;3.57;;;19.30;23.10;;;;;;10446832;28;20229;-77
2023/05/27 23:09:20;;;;;;;4.30;3.07;;;19.30;23.70;;;;;;10440006;28;20316;-77
2023/05/27 23:14:23;;;;;;;4.17;3.30;;;19.30;23.40;;;;;;10445476;28;20301;-76
2023/05/27 23:19:28;;;;;;;5.20;3.57;;;19.20;23.50;;;;;;10434651;28;20255;-76
2023/05/27 23:24:32;;;;;;;5.90;3.67;;;19.10;23.50;;;;;;10447735;28;20283;-77
2023/05/27 23:29:35;;;;;;;5.27;3.83;;;19.10;23.50;;;;;;10440646;28;20225;-78
2023/05/27 23:34:39;;;;;;;4.33;3.30;;;19.00;23.60;;;;;;10447691;28;20282;-77
2023/05/27 23:39:43;;;;;;;4.87;3.60;;;19.00;23.80;;;;;;10437355;28;20229;-77
2023/05/27 23:44:46;;;;;;;4.57;3.80;;;19.00;23.90;;;;;;10449313;28;20225;-77
2023/05/27 23:49:50;;;;;;;4.50;4.10;;;18.90;23.90;;;;;;10433828;28;20336;-77
2023/05/27 23:54:55;;;;;;;5.13;4.63;;;18.90;24.30;;;;;;10438370;28;20288;-78
2023/05/27 23:59:58;;;;;;;7.87;5.63;;;18.80;23.90;;;;;;10433279;28;20580;-78
